createdAt,value
2023-02-19T00:02:47.798Z,504.00
2023-02-19T00:03:47.868Z,500.00
2023-02-19T00:04:47.871Z,506.00
2023-02-19T00:05:47.871Z,507.00
2023-02-19T00:06:47.905Z,500.00
2023-02-19T00:07:47.928Z,502.00
2023-02-19T00:08:47.958Z,501.00
2023-02-19T00:09:47.976Z,506.00
2023-02-19T00:10:48.003Z,505.00
2023-02-19T00:11:48.155Z,505.00
2023-02-19T00:12:48.046Z,502.00
2023-02-19T00:13:48.073Z,504.00
2023-02-19T00:14:49.051Z,504.00
2023-02-19T00:15:48.236Z,501.00
2023-02-19T00:16:48.178Z,501.00
2023-02-19T00:17:48.181Z,504.00
2023-02-19T00:18:48.201Z,504.00
2023-02-19T00:19:48.225Z,504.00
2023-02-19T00:20:48.266Z,505.00
2023-02-19T00:21:48.288Z,503.00
2023-02-19T00:22:48.343Z,501.00
2023-02-19T00:23:48.327Z,502.00
2023-02-19T00:24:49.288Z,505.00
2023-02-19T00:25:48.388Z,502.00
2023-02-19T00:26:48.419Z,507.00
2023-02-19T00:27:48.438Z,501.00
2023-02-19T00:28:48.486Z,502.00
2023-02-19T00:29:48.542Z,504.00
2023-02-19T00:30:48.600Z,504.00
2023-02-19T00:31:48.678Z,505.00
2023-02-19T00:32:48.600Z,502.00
2023-02-19T00:33:48.635Z,503.00
2023-02-19T00:34:48.681Z,509.00
2023-02-19T00:35:48.702Z,504.00
2023-02-19T00:36:48.757Z,506.00
2023-02-19T00:37:48.777Z,504.00
2023-02-19T00:38:48.785Z,508.00
2023-02-19T00:39:48.824Z,502.00
2023-02-19T00:40:48.860Z,504.00
2023-02-19T00:41:49.517Z,501.00
2023-02-19T00:42:48.910Z,505.00
2023-02-19T00:43:48.937Z,502.00
2023-02-19T00:44:48.978Z,502.00
2023-02-19T00:45:49.016Z,500.00
2023-02-19T00:46:50.024Z,500.00
2023-02-19T00:47:49.073Z,506.00
2023-02-19T00:48:49.101Z,504.00
2023-02-19T00:49:49.132Z,503.00
2023-02-19T00:50:49.159Z,501.00
2023-02-19T00:51:49.200Z,501.00
2023-02-19T00:52:49.226Z,504.00
2023-02-19T00:53:49.259Z,508.00
2023-02-19T00:54:49.286Z,505.00
2023-02-19T00:55:49.324Z,502.00
2023-02-19T00:56:49.350Z,503.00
2023-02-19T00:57:49.374Z,503.00
2023-02-19T00:58:50.028Z,503.00
2023-02-19T00:59:49.441Z,502.00
2023-02-19T01:00:49.472Z,508.00
2023-02-19T01:01:49.617Z,503.00
2023-02-19T01:02:49.527Z,501.00
2023-02-19T01:03:49.556Z,505.00
2023-02-19T01:04:49.597Z,509.00
2023-02-19T01:05:49.612Z,501.00
2023-02-19T01:06:49.642Z,507.00
2023-02-19T01:07:49.662Z,505.00
2023-02-19T01:08:49.689Z,501.00
2023-02-19T01:09:49.715Z,503.00
2023-02-19T01:11:49.780Z,504.00
2023-02-19T01:12:49.810Z,508.00
2023-02-19T01:13:49.843Z,506.00
2023-02-19T01:14:49.892Z,504.00
2023-02-19T01:15:49.931Z,500.00
2023-02-19T01:16:49.945Z,501.00
2023-02-19T01:17:49.968Z,508.00
2023-02-19T01:18:50.001Z,506.00
2023-02-19T01:19:50.031Z,507.00
2023-02-19T01:20:50.064Z,504.00
2023-02-19T01:21:50.530Z,503.00
2023-02-19T03:00:27.929Z,500.00
2023-02-19T03:01:27.917Z,500.00
2023-02-19T03:02:27.961Z,500.00
2023-02-19T03:03:27.891Z,500.00
2023-02-19T03:04:27.848Z,500.00
2023-02-19T03:05:27.825Z,501.00
2023-02-19T03:06:27.806Z,500.00
2023-02-19T03:07:27.787Z,504.00
2023-02-19T03:08:27.770Z,501.00
2023-02-19T03:09:27.763Z,500.00
2023-02-19T03:10:27.795Z,502.00
2023-02-19T03:11:27.725Z,504.00
2023-02-19T03:26:27.580Z,503.00
2023-02-19T03:27:27.557Z,503.00
2023-02-19T03:28:27.527Z,505.00
2023-02-19T03:29:27.576Z,508.00
2023-02-19T03:30:27.549Z,502.00
2023-02-19T03:31:27.558Z,505.00
2023-02-19T03:32:27.492Z,503.00
2023-02-19T03:33:27.479Z,502.00
2023-02-19T03:34:27.461Z,506.00
2023-02-19T03:35:27.450Z,503.00
2023-02-19T03:41:27.608Z,505.00
2023-02-19T03:42:27.629Z,505.00
2023-02-19T03:43:27.680Z,507.00
2023-02-19T03:44:27.748Z,504.00
2023-02-19T03:45:27.777Z,507.00
2023-02-19T03:46:27.825Z,504.00
2023-02-19T03:47:27.888Z,504.00
2023-02-19T03:48:27.931Z,501.00
2023-02-19T03:49:27.977Z,505.00
2023-02-19T03:50:28.129Z,506.00
2023-02-19T03:51:28.084Z,506.00
2023-02-19T03:52:28.130Z,507.00
2023-02-19T03:53:28.178Z,504.00
2023-02-19T03:54:28.217Z,504.00
2023-02-19T03:55:28.361Z,506.00
2023-02-19T03:56:28.325Z,504.00
2023-02-19T03:57:28.384Z,509.00
2023-02-19T03:58:28.422Z,507.00
2023-02-19T03:59:28.482Z,509.00
2023-02-19T04:00:28.541Z,509.00
2023-02-19T04:01:28.590Z,505.00
2023-02-19T04:02:28.668Z,506.00
2023-02-19T04:03:28.685Z,504.00
2023-02-19T04:04:28.750Z,507.00
2023-02-19T04:05:28.805Z,505.00
2023-02-19T04:06:28.844Z,504.00
2023-02-19T04:07:28.906Z,509.00
2023-02-19T04:08:28.959Z,504.00
2023-02-19T04:09:29.024Z,506.00
2023-02-19T04:10:29.091Z,505.00
2023-02-19T04:11:29.144Z,506.00
2023-02-19T04:12:29.639Z,507.00
2023-02-19T04:13:29.257Z,507.00
2023-02-19T04:14:29.310Z,511.00
2023-02-19T04:15:29.380Z,509.00
2023-02-19T04:16:29.449Z,507.00
2023-02-19T04:17:29.487Z,509.00
2023-02-19T04:18:29.537Z,510.00
2023-02-19T04:19:29.595Z,504.00
2023-02-19T04:20:29.646Z,506.00
2023-02-19T04:21:30.156Z,508.00
2023-02-19T04:22:29.751Z,510.00
2023-02-19T04:23:29.812Z,503.00
2023-02-19T04:24:29.871Z,509.00
2023-02-19T04:25:29.931Z,501.00
2023-02-19T04:26:29.993Z,507.00
2023-02-19T04:27:30.046Z,509.00
2023-02-19T04:28:30.108Z,507.00
2023-02-19T04:29:30.163Z,507.00
2023-02-19T04:30:30.325Z,507.00
2023-02-19T04:31:30.340Z,511.00
2023-02-19T04:32:30.384Z,505.00
2023-02-19T04:33:30.428Z,508.00
2023-02-19T04:34:30.444Z,511.00
2023-02-19T04:35:30.497Z,512.00
2023-02-19T04:36:30.554Z,503.00
2023-02-19T04:37:30.682Z,508.00
2023-02-19T04:38:30.657Z,509.00
2023-02-19T04:39:30.720Z,506.00
2023-02-19T04:40:30.772Z,509.00
2023-02-19T04:41:30.830Z,505.00
2023-02-19T04:42:30.928Z,509.00
2023-02-19T04:43:31.008Z,511.00
2023-02-19T04:44:30.973Z,507.00
2023-02-19T04:45:31.030Z,507.00
2023-02-19T04:46:31.143Z,509.00
2023-02-19T04:47:31.146Z,508.00
2023-02-19T04:48:31.169Z,511.00
2023-02-19T04:49:31.199Z,508.00
2023-02-19T04:50:31.241Z,509.00
2023-02-19T04:51:31.289Z,509.00
2023-02-19T04:52:31.318Z,508.00
2023-02-19T04:53:31.382Z,510.00
2023-02-19T04:54:31.416Z,510.00
2023-02-19T04:55:31.476Z,509.00
2023-02-19T04:56:31.507Z,510.00
2023-02-19T04:57:31.543Z,511.00
2023-02-19T04:58:31.600Z,511.00
2023-02-19T04:59:32.147Z,512.00
2023-02-19T05:00:31.716Z,510.00
2023-02-19T05:01:31.816Z,511.00
2023-02-19T05:02:31.908Z,511.00
2023-02-19T05:03:32.649Z,507.00
2023-02-19T05:04:31.948Z,508.00
2023-02-19T05:05:31.994Z,510.00
2023-02-19T05:06:32.053Z,511.00
2023-02-19T05:07:32.109Z,508.00
2023-02-19T05:08:32.158Z,507.00
2023-02-19T05:09:32.220Z,510.00
2023-02-19T05:10:32.276Z,507.00
2023-02-19T05:11:32.339Z,506.00
2023-02-19T05:12:32.426Z,510.00
2023-02-19T05:13:32.462Z,508.00
2023-02-19T05:14:32.502Z,504.00
2023-02-19T05:15:32.628Z,505.00
2023-02-19T05:16:32.627Z,509.00
2023-02-19T05:17:32.681Z,511.00
2023-02-19T05:18:32.741Z,510.00
2023-02-19T05:19:32.789Z,506.00
2023-02-19T05:20:32.821Z,509.00
2023-02-19T05:21:32.855Z,505.00
2023-02-19T05:22:32.900Z,510.00
2023-02-19T05:23:32.958Z,508.00
2023-02-19T05:24:33.016Z,508.00
2023-02-19T05:25:33.092Z,509.00
2023-02-19T05:26:33.132Z,505.00
2023-02-19T05:27:33.200Z,508.00
2023-02-19T05:28:33.310Z,509.00
2023-02-19T05:29:33.281Z,505.00
2023-02-19T05:30:33.456Z,511.00
2023-02-19T05:31:33.460Z,511.00
2023-02-19T05:32:33.464Z,507.00
2023-02-19T05:33:33.502Z,507.00
2023-02-19T05:34:33.562Z,503.00
2023-02-19T05:35:33.613Z,505.00
2023-02-19T05:36:33.668Z,507.00
2023-02-19T05:37:33.733Z,508.00
2023-02-19T05:38:33.811Z,505.00
2023-02-19T05:39:33.856Z,507.00
2023-02-19T05:40:33.909Z,506.00
2023-02-19T05:41:33.975Z,507.00
2023-02-19T05:42:34.043Z,509.00
2023-02-19T05:43:34.097Z,509.00
2023-02-19T05:44:34.172Z,504.00
2023-02-19T05:45:34.218Z,507.00
2023-02-19T05:46:34.325Z,506.00
2023-02-19T05:47:34.344Z,506.00
2023-02-19T05:48:34.403Z,507.00
2023-02-19T05:49:34.467Z,510.00
2023-02-19T05:50:34.504Z,510.00
2023-02-19T05:51:34.570Z,508.00
2023-02-19T05:52:34.637Z,508.00
2023-02-19T05:53:34.675Z,509.00
2023-02-19T05:54:34.727Z,509.00
2023-02-19T05:55:34.819Z,509.00
2023-02-19T05:56:34.816Z,509.00
2023-02-19T05:57:34.865Z,511.00
2023-02-19T05:58:34.927Z,507.00
2023-02-19T05:59:34.990Z,510.00
2023-02-19T06:00:35.055Z,513.00
2023-02-19T06:01:35.097Z,509.00
2023-02-19T06:02:35.763Z,510.00
2023-02-19T06:03:35.230Z,508.00
2023-02-19T06:04:35.258Z,515.00
2023-02-19T06:05:35.330Z,513.00
2023-02-19T06:06:35.364Z,513.00
2023-02-19T06:07:35.427Z,509.00
2023-02-19T06:08:35.489Z,511.00
2023-02-19T06:09:35.544Z,512.00
2023-02-19T06:10:35.623Z,509.00
2023-02-19T06:11:35.669Z,510.00
2023-02-19T06:12:35.724Z,513.00
2023-02-19T06:13:35.864Z,514.00
2023-02-19T06:14:35.853Z,514.00
2023-02-19T06:15:35.917Z,512.00
2023-02-19T06:16:35.990Z,515.00
2023-02-19T06:17:36.042Z,515.00
2023-02-19T06:18:36.105Z,516.00
2023-02-19T06:19:36.147Z,514.00
2023-02-19T06:20:36.197Z,516.00
2023-02-19T06:21:36.266Z,512.00
2023-02-19T06:22:36.304Z,514.00
2023-02-19T06:23:36.345Z,512.00
2023-02-19T06:24:36.388Z,516.00
2023-02-19T06:25:36.447Z,515.00
2023-02-19T06:26:36.506Z,514.00
2023-02-19T06:27:36.556Z,513.00
2023-02-19T06:28:36.645Z,514.00
2023-02-19T06:29:36.695Z,517.00
2023-02-19T06:30:36.742Z,513.00
2023-02-19T06:31:36.907Z,515.00
2023-02-19T06:32:36.850Z,516.00
2023-02-19T06:33:36.908Z,518.00
2023-02-19T06:34:36.975Z,513.00
2023-02-19T06:35:37.687Z,514.00
2023-02-19T06:36:37.093Z,515.00
2023-02-19T06:37:37.136Z,517.00
2023-02-19T06:38:37.188Z,516.00
2023-02-19T06:39:37.377Z,518.00
2023-02-19T06:40:37.252Z,516.00
2023-02-19T06:41:37.304Z,513.00
2023-02-19T06:42:37.352Z,520.00
2023-02-19T06:43:37.399Z,518.00
2023-02-19T06:44:37.544Z,516.00
2023-02-19T06:45:37.473Z,513.00
2023-02-19T06:46:37.622Z,521.00
2023-02-19T06:47:37.554Z,516.00
2023-02-19T06:48:37.585Z,517.00
2023-02-19T06:49:37.638Z,521.00
2023-02-19T06:50:37.704Z,517.00
2023-02-19T06:51:37.765Z,517.00
2023-02-19T06:52:37.864Z,518.00
2023-02-19T06:53:37.867Z,520.00
2023-02-19T06:54:37.909Z,520.00
2023-02-19T06:55:37.956Z,518.00
2023-02-19T06:56:37.989Z,523.00
2023-02-19T06:57:38.035Z,520.00
2023-02-19T06:58:38.094Z,521.00
2023-02-19T06:59:38.136Z,519.00
2023-02-19T07:00:38.218Z,520.00
2023-02-19T07:01:38.204Z,521.00
2023-02-19T07:02:38.253Z,519.00
2023-02-19T07:03:38.304Z,520.00
2023-02-19T07:04:38.309Z,521.00
2023-02-19T07:05:38.341Z,519.00
2023-02-19T07:06:38.446Z,522.00
2023-02-19T07:07:38.423Z,520.00
2023-02-19T07:08:38.465Z,520.00
2023-02-19T07:09:38.497Z,522.00
2023-02-19T07:10:38.494Z,522.00
2023-02-19T07:11:38.493Z,520.00
2023-02-19T07:12:38.495Z,522.00
2023-02-19T07:13:38.509Z,523.00
2023-02-19T07:14:38.522Z,522.00
2023-02-19T07:15:38.510Z,525.00
2023-02-19T07:16:38.588Z,528.00
2023-02-19T07:17:38.506Z,521.00
2023-02-19T07:18:38.517Z,527.00
2023-02-19T07:19:38.535Z,526.00
2023-02-19T07:20:38.538Z,523.00
2023-02-19T07:21:38.556Z,521.00
2023-02-19T07:22:38.573Z,524.00
2023-02-19T07:23:38.610Z,525.00
2023-02-19T07:24:38.628Z,523.00
2023-02-19T07:25:38.654Z,525.00
2023-02-19T07:26:38.670Z,521.00
2023-02-19T07:27:38.694Z,524.00
2023-02-19T07:28:38.731Z,526.00
2023-02-19T07:29:38.713Z,526.00
2023-02-19T07:30:38.713Z,527.00
2023-02-19T07:31:38.825Z,528.00
2023-02-19T07:32:38.718Z,526.00
2023-02-19T07:33:38.690Z,525.00
2023-02-19T07:34:38.716Z,525.00
2023-02-19T07:35:39.704Z,523.00
2023-02-19T07:36:38.806Z,526.00
2023-02-19T07:37:38.818Z,524.00
2023-02-19T07:38:38.837Z,528.00
2023-02-19T07:39:38.852Z,525.00
2023-02-19T07:40:38.884Z,524.00
2023-02-19T07:41:38.940Z,532.00
2023-02-19T07:42:38.988Z,527.00
2023-02-19T07:43:39.021Z,530.00
2023-02-19T07:44:39.048Z,526.00
2023-02-19T07:45:39.168Z,530.00
2023-02-19T07:46:39.122Z,526.00
2023-02-19T07:47:39.165Z,525.00
2023-02-19T07:48:39.232Z,527.00
2023-02-19T07:49:39.266Z,527.00
2023-02-19T07:50:39.327Z,529.00
2023-02-19T07:51:39.405Z,529.00
2023-02-19T07:52:39.444Z,531.00
2023-02-19T07:53:39.503Z,530.00
2023-02-19T07:54:39.553Z,530.00
2023-02-19T07:55:39.603Z,528.00
2023-02-19T07:56:39.672Z,532.00
2023-02-19T07:57:39.721Z,532.00
2023-02-19T07:58:39.776Z,530.00
2023-02-19T07:59:39.795Z,528.00
2023-02-19T08:00:39.837Z,529.00
2023-02-19T08:01:39.877Z,530.00
2023-02-19T08:02:39.935Z,531.00
2023-02-19T08:03:40.058Z,527.00
2023-02-19T08:04:40.028Z,529.00
2023-02-19T08:05:40.089Z,529.00
2023-02-19T08:06:40.144Z,531.00
2023-02-19T08:07:40.177Z,531.00
2023-02-19T08:08:40.243Z,530.00
2023-02-19T08:09:40.310Z,533.00
2023-02-19T08:10:40.360Z,531.00
2023-02-19T08:11:40.388Z,533.00
2023-02-19T08:12:40.505Z,533.00
2023-02-19T08:13:40.495Z,535.00
2023-02-19T08:14:40.545Z,533.00
2023-02-19T08:15:40.593Z,530.00
2023-02-19T08:16:43.302Z,531.00
2023-02-19T08:17:40.602Z,535.00
2023-02-19T08:18:40.596Z,531.00
2023-02-19T08:19:40.692Z,529.00
2023-02-19T08:20:40.664Z,532.00
2023-02-19T08:21:40.624Z,533.00
2023-02-19T08:22:40.677Z,532.00
2023-02-19T08:23:40.589Z,534.00
2023-02-19T08:24:40.600Z,533.00
2023-02-19T08:25:40.628Z,531.00
2023-02-19T08:26:40.585Z,533.00
2023-02-19T08:27:40.582Z,533.00
2023-02-19T08:28:40.589Z,534.00
2023-02-19T08:29:40.663Z,537.00
2023-02-19T08:30:40.665Z,537.00
2023-02-19T08:31:40.647Z,535.00
2023-02-19T08:32:40.731Z,533.00
2023-02-19T08:33:41.247Z,537.00
2023-02-19T08:34:40.562Z,534.00
2023-02-19T08:35:40.574Z,536.00
2023-02-19T08:36:40.560Z,534.00
2023-02-19T08:37:40.558Z,538.00
2023-02-19T08:38:40.613Z,536.00
2023-02-19T08:39:40.556Z,537.00
2023-02-19T08:40:40.579Z,536.00
2023-02-19T08:41:40.549Z,539.00
2023-02-19T08:42:40.550Z,538.00
2023-02-19T08:43:40.555Z,536.00
2023-02-19T08:44:40.567Z,536.00
2023-02-19T08:45:40.590Z,541.00
2023-02-19T08:46:40.537Z,539.00
2023-02-19T08:47:40.547Z,537.00
2023-02-19T08:48:40.534Z,539.00
2023-02-19T08:49:40.580Z,534.00
2023-02-19T08:50:40.535Z,534.00
2023-02-19T08:51:40.520Z,539.00
2023-02-19T08:52:40.517Z,538.00
2023-02-19T08:53:40.534Z,535.00
2023-02-19T08:54:41.229Z,535.00
2023-02-19T08:55:40.509Z,537.00
2023-02-19T08:56:40.541Z,535.00
2023-02-19T08:57:40.491Z,534.00
2023-02-19T08:58:40.480Z,541.00
2023-02-19T08:59:40.482Z,535.00
2023-02-19T09:00:40.476Z,539.00
2023-02-19T09:01:40.513Z,538.00
2023-02-19T09:02:40.453Z,537.00
2023-02-19T09:03:40.457Z,540.00
2023-02-19T09:04:40.513Z,536.00
2023-02-19T09:05:40.551Z,540.00
2023-02-19T09:06:40.568Z,538.00
2023-02-19T09:07:40.642Z,537.00
2023-02-19T09:08:40.687Z,537.00
2023-02-19T09:09:40.818Z,539.00
2023-02-19T09:10:40.822Z,540.00
2023-02-19T09:11:40.887Z,542.00
2023-02-19T09:12:40.956Z,540.00
2023-02-19T09:13:41.029Z,541.00
2023-02-19T09:14:41.097Z,543.00
2023-02-19T09:15:41.152Z,544.00
2023-02-19T09:16:41.189Z,542.00
2023-02-19T09:17:41.267Z,542.00
2023-02-19T09:18:41.322Z,539.00
2023-02-19T09:19:41.371Z,540.00
2023-02-19T09:20:41.421Z,539.00
2023-02-19T09:21:41.470Z,541.00
2023-02-19T09:22:41.525Z,539.00
2023-02-19T09:23:41.574Z,538.00
2023-02-19T09:24:41.626Z,540.00
2023-02-19T09:25:41.694Z,539.00
2023-02-19T09:26:41.725Z,539.00
2023-02-19T09:27:41.776Z,542.00
2023-02-19T09:28:42.134Z,541.00
2023-02-19T09:29:41.882Z,539.00
2023-02-19T09:30:42.040Z,539.00
2023-02-19T09:31:42.166Z,541.00
2023-02-19T09:32:42.024Z,537.00
2023-02-19T09:33:42.059Z,539.00
2023-02-19T09:34:42.096Z,539.00
2023-02-19T09:35:42.148Z,539.00
2023-02-19T09:36:42.271Z,536.00
2023-02-19T09:37:42.225Z,539.00
2023-02-19T09:38:42.266Z,534.00
2023-02-19T09:39:42.290Z,536.00
2023-02-19T09:40:42.344Z,536.00
2023-02-19T09:41:42.428Z,532.00
2023-02-19T09:42:42.406Z,534.00
2023-02-19T09:43:42.443Z,535.00
2023-02-19T09:44:42.484Z,536.00
2023-02-19T09:45:42.520Z,537.00
2023-02-19T09:46:42.567Z,536.00
2023-02-19T09:47:42.590Z,537.00
2023-02-19T09:48:42.613Z,539.00
2023-02-19T09:49:42.660Z,542.00
2023-02-19T09:50:42.698Z,537.00
2023-02-19T09:51:42.788Z,540.00
2023-02-19T09:52:42.733Z,538.00
2023-02-19T09:53:42.786Z,543.00
2023-02-19T09:54:42.747Z,539.00
2023-02-19T09:55:42.737Z,543.00
2023-02-19T09:56:42.727Z,542.00
2023-02-19T09:57:42.712Z,544.00
2023-02-19T09:58:42.699Z,549.00
2023-02-19T09:59:42.677Z,548.00
2023-02-19T10:00:42.660Z,550.00
2023-02-19T10:01:42.675Z,548.00
2023-02-19T10:02:42.617Z,549.00
2023-02-19T10:03:42.617Z,541.00
2023-02-19T10:04:42.616Z,542.00
2023-02-19T10:05:42.598Z,543.00
2023-02-19T10:06:42.591Z,542.00
2023-02-19T10:07:42.634Z,544.00
2023-02-19T10:08:42.566Z,542.00
2023-02-19T10:09:42.565Z,538.00
2023-02-19T10:10:42.568Z,544.00
2023-02-19T10:11:42.559Z,540.00
2023-02-19T10:12:42.554Z,540.00
2023-02-19T10:13:42.763Z,544.00
2023-02-19T10:14:42.519Z,545.00
2023-02-19T10:15:42.506Z,545.00
2023-02-19T10:16:42.479Z,544.00
2023-02-19T10:17:42.466Z,545.00
2023-02-19T10:18:42.452Z,545.00
2023-02-19T10:19:42.429Z,545.00
2023-02-19T10:20:42.413Z,542.00
2023-02-19T10:21:42.411Z,546.00
2023-02-19T10:22:42.393Z,543.00
2023-02-19T10:23:42.382Z,541.00
2023-02-19T10:24:42.397Z,544.00
2023-02-19T10:25:42.400Z,541.00
2023-02-19T10:26:42.408Z,544.00
2023-02-19T10:27:42.395Z,547.00
2023-02-19T10:28:42.394Z,544.00
2023-02-19T10:29:42.400Z,545.00
2023-02-19T10:30:42.386Z,544.00
2023-02-19T10:31:42.486Z,545.00
2023-02-19T10:32:42.395Z,544.00
2023-02-19T10:33:42.394Z,548.00
2023-02-19T10:34:42.414Z,546.00
2023-02-19T10:35:42.428Z,546.00
2023-02-19T10:36:42.442Z,545.00
2023-02-19T10:37:42.465Z,544.00
2023-02-19T10:38:42.490Z,546.00
2023-02-19T10:39:42.534Z,546.00
2023-02-19T10:40:42.564Z,547.00
2023-02-19T10:41:44.345Z,546.00
2023-02-19T12:00:42.715Z,533.00
2023-02-19T12:01:42.718Z,532.00
2023-02-19T12:02:42.658Z,529.00
2023-02-19T12:03:42.623Z,528.00
2023-02-19T12:04:42.593Z,528.00
2023-02-19T12:05:42.559Z,531.00
2023-02-19T12:06:42.521Z,524.00
2023-02-19T12:07:42.475Z,529.00
2023-02-19T12:08:42.444Z,531.00
2023-02-19T12:09:42.394Z,534.00
2023-02-19T12:10:42.335Z,528.00
2023-02-19T12:11:42.283Z,528.00
2023-02-19T12:12:42.245Z,525.00
2023-02-19T12:13:42.219Z,527.00
2023-02-19T12:14:42.159Z,533.00
2023-02-19T12:15:42.107Z,528.00
2023-02-19T12:16:42.060Z,527.00
2023-02-19T12:17:42.024Z,525.00
2023-02-19T12:18:42.017Z,528.00
2023-02-19T12:19:42.006Z,525.00
2023-02-19T12:20:41.978Z,521.00
2023-02-19T12:21:41.980Z,525.00
2023-02-19T12:22:41.998Z,523.00
2023-02-19T12:23:41.995Z,529.00
2023-02-19T12:24:42.003Z,526.00
2023-02-19T12:25:42.013Z,524.00
2023-02-19T12:26:42.022Z,526.00
2023-02-19T12:27:42.028Z,523.00
2023-02-19T12:28:42.052Z,519.00
2023-02-19T12:29:42.070Z,518.00
2023-02-19T12:30:42.076Z,516.00
2023-02-19T12:31:42.096Z,525.00
2023-02-19T12:32:42.042Z,522.00
2023-02-19T12:33:42.034Z,523.00
2023-02-19T12:34:42.042Z,525.00
2023-02-19T12:35:42.045Z,528.00
2023-02-19T12:36:42.034Z,524.00
2023-02-19T12:37:42.045Z,525.00
2023-02-19T12:38:42.033Z,518.00
2023-02-19T12:39:42.038Z,526.00
2023-02-19T12:40:42.017Z,527.00
2023-02-19T12:41:42.081Z,525.00
2023-02-19T12:42:41.988Z,524.00
2023-02-19T12:43:41.968Z,522.00
2023-02-19T12:44:41.948Z,525.00
2023-02-19T12:45:41.961Z,528.00
2023-02-19T12:46:41.909Z,523.00
2023-02-19T12:47:41.958Z,522.00
2023-02-19T12:48:41.876Z,523.00
2023-02-19T12:49:41.876Z,523.00
2023-02-19T12:50:41.831Z,519.00
2023-02-19T12:51:41.813Z,524.00
2023-02-19T12:52:41.802Z,526.00
2023-02-19T12:53:41.776Z,522.00
2023-02-19T12:54:41.767Z,524.00
2023-02-19T12:55:41.726Z,527.00
2023-02-19T12:56:41.700Z,525.00
2023-02-19T12:57:41.673Z,517.00
2023-02-19T12:58:41.655Z,522.00
2023-02-19T12:59:42.329Z,523.00
2023-02-19T13:00:41.600Z,525.00
2023-02-19T13:01:41.561Z,522.00
2023-02-19T13:02:41.512Z,521.00
2023-02-19T13:03:41.511Z,525.00
2023-02-19T13:04:42.396Z,524.00
2023-02-19T13:05:41.401Z,519.00
2023-02-19T13:06:41.358Z,535.00
2023-02-19T13:07:41.333Z,524.00
2023-02-19T13:08:48.803Z,525.00
2023-02-19T13:09:42.225Z,525.00
2023-02-19T13:10:41.157Z,521.00
2023-02-19T13:11:41.833Z,523.00
2023-02-19T13:12:41.016Z,523.00
2023-02-19T13:13:41.010Z,522.00
2023-02-19T13:14:40.881Z,523.00
2023-02-19T13:15:40.880Z,530.00
2023-02-19T13:16:40.802Z,529.00
2023-02-19T13:17:40.667Z,526.00
2023-02-19T13:18:40.605Z,523.00
2023-02-19T13:19:40.540Z,523.00
2023-02-19T13:20:40.461Z,519.00
2023-02-19T13:21:40.383Z,522.00
2023-02-19T13:22:40.314Z,524.00
2023-02-19T13:23:40.228Z,522.00
2023-02-19T13:24:40.164Z,524.00
2023-02-19T13:25:40.090Z,524.00
2023-02-19T13:26:40.022Z,522.00
2023-02-19T13:27:41.697Z,521.00
2023-02-19T13:28:39.876Z,517.00
2023-02-19T13:29:39.798Z,515.00
2023-02-19T13:30:39.823Z,526.00
2023-02-19T13:31:40.421Z,516.00
2023-02-19T13:32:39.572Z,514.00
2023-02-19T13:33:39.850Z,517.00
2023-02-19T13:34:39.429Z,520.00
2023-02-19T13:35:39.412Z,517.00
2023-02-19T13:36:39.276Z,521.00
2023-02-19T13:37:39.206Z,520.00
2023-02-19T13:38:39.127Z,517.00
2023-02-19T13:39:39.046Z,519.00
2023-02-19T13:40:38.982Z,517.00
2023-02-19T13:41:39.842Z,521.00
2023-02-19T13:42:39.341Z,522.00
2023-02-19T13:43:38.792Z,520.00
2023-02-19T13:44:38.752Z,521.00
2023-02-19T13:45:38.622Z,520.00
2023-02-19T13:46:38.633Z,514.00
2023-02-19T13:47:38.498Z,520.00
2023-02-19T13:48:38.436Z,518.00
2023-02-19T13:49:38.409Z,522.00
2023-02-19T13:50:38.319Z,517.00
2023-02-19T13:51:38.272Z,522.00
2023-02-19T13:52:38.215Z,517.00
2023-02-19T13:53:38.156Z,519.00
2023-02-19T13:54:38.105Z,517.00
2023-02-19T13:55:39.174Z,517.00
2023-02-19T13:56:38.855Z,515.00
2023-02-19T13:57:38.152Z,518.00
2023-02-19T13:58:38.108Z,515.00
2023-02-19T13:59:38.082Z,517.00
2023-02-19T14:00:38.013Z,515.00
2023-02-19T14:01:38.001Z,518.00
2023-02-19T14:02:37.944Z,513.00
2023-02-19T14:03:37.964Z,519.00
2023-02-19T14:04:37.877Z,514.00
2023-02-19T14:05:37.835Z,507.00
2023-02-19T14:06:37.811Z,516.00
2023-02-19T14:07:37.866Z,509.00
2023-02-19T14:16:38.358Z,509.00
2023-02-19T14:33:37.866Z,517.00
2023-02-19T15:00:36.390Z,516.00
2023-02-19T15:01:36.383Z,518.00
2023-02-19T15:02:36.350Z,513.00
2023-02-19T15:03:36.329Z,520.00
2023-02-19T15:04:36.421Z,519.00
2023-02-19T15:05:36.301Z,521.00
2023-02-19T15:06:36.295Z,517.00
2023-02-19T15:07:36.292Z,518.00
2023-02-19T15:08:36.282Z,522.00
2023-02-19T15:09:36.287Z,516.00
2023-02-19T15:10:36.276Z,525.00
2023-02-19T15:11:36.336Z,522.00
2023-02-19T15:12:36.384Z,517.00
2023-02-19T15:13:36.314Z,515.00
2023-02-19T15:14:36.880Z,523.00
2023-02-19T15:15:36.255Z,519.00
2023-02-19T15:16:36.374Z,521.00
2023-02-19T15:17:36.302Z,517.00
2023-02-19T15:18:36.292Z,528.00
2023-02-19T15:19:36.312Z,521.00
2023-02-19T15:20:36.331Z,526.00
2023-02-19T15:21:36.334Z,520.00
2023-02-19T15:22:36.438Z,526.00
2023-02-19T15:23:36.394Z,524.00
2023-02-19T15:24:36.401Z,528.00
2023-02-19T15:25:36.419Z,527.00
2023-02-19T15:26:36.437Z,527.00
2023-02-19T15:27:36.429Z,521.00
2023-02-19T15:28:36.449Z,526.00
2023-02-19T15:29:36.436Z,526.00
2023-02-19T15:30:36.476Z,521.00
2023-02-19T15:31:36.492Z,525.00
2023-02-19T15:32:36.509Z,529.00
2023-02-19T15:33:36.441Z,520.00
2023-02-19T15:34:37.316Z,523.00
2023-02-19T15:35:36.431Z,523.00
2023-02-19T15:36:36.411Z,525.00
2023-02-19T15:37:36.385Z,531.00
2023-02-19T15:38:36.379Z,525.00
2023-02-19T15:39:36.382Z,520.00
2023-02-19T15:40:36.372Z,525.00
2023-02-19T15:41:36.896Z,521.00
2023-02-19T15:42:36.362Z,530.00
2023-02-19T15:43:36.377Z,524.00
2023-02-19T15:44:36.345Z,523.00
2023-02-19T15:45:36.390Z,528.00
2023-02-19T15:46:36.338Z,532.00
2023-02-19T15:47:36.405Z,525.00
2023-02-19T15:48:36.347Z,525.00
2023-02-19T15:49:38.909Z,528.00
2023-02-19T15:50:36.504Z,529.00
2023-02-19T15:51:36.496Z,528.00
2023-02-19T15:52:36.481Z,531.00
2023-02-19T15:53:36.472Z,526.00
2023-02-19T15:54:36.460Z,526.00
2023-02-19T15:55:36.460Z,532.00
2023-02-19T15:56:36.423Z,527.00
2023-02-19T15:57:36.426Z,532.00
2023-02-19T15:58:36.400Z,525.00
2023-02-19T15:59:36.369Z,529.00
2023-02-19T16:00:36.388Z,531.00
2023-02-19T16:01:36.395Z,523.00
2023-02-19T16:02:36.339Z,528.00
2023-02-19T16:03:36.212Z,533.00
2023-02-19T16:04:36.178Z,524.00
2023-02-19T16:05:36.144Z,529.00
2023-02-19T16:06:36.099Z,526.00
2023-02-19T16:07:36.063Z,530.00
2023-02-19T16:08:36.026Z,527.00
2023-02-19T16:09:35.994Z,529.00
2023-02-19T16:10:36.048Z,533.00
2023-02-19T16:11:36.914Z,535.00
2023-02-19T16:13:35.864Z,536.00
2023-02-19T16:15:35.907Z,534.00
2023-02-19T16:16:35.933Z,527.00
2023-02-19T16:17:35.768Z,532.00
2023-02-19T16:18:35.734Z,532.00
2023-02-19T16:19:35.709Z,535.00
2023-02-19T16:20:35.690Z,530.00
2023-02-19T16:21:35.659Z,531.00
2023-02-19T16:22:35.633Z,535.00
2023-02-19T16:23:35.612Z,531.00
2023-02-19T16:25:35.574Z,534.00
2023-02-19T16:26:35.547Z,532.00
2023-02-19T16:27:35.523Z,536.00
2023-02-19T16:28:35.499Z,532.00
2023-02-19T16:29:35.599Z,525.00
2023-02-19T16:30:35.488Z,534.00
2023-02-19T16:31:35.515Z,535.00
2023-02-19T16:32:35.422Z,541.00
2023-02-19T16:33:35.392Z,539.00
2023-02-19T16:34:35.387Z,537.00
2023-02-19T16:35:35.352Z,533.00
2023-02-19T16:36:35.327Z,535.00
2023-02-19T16:37:35.303Z,538.00
2023-02-19T16:38:35.281Z,536.00
2023-02-19T16:39:35.270Z,546.00